Terminal Aerodrome Forecast
Issued by NWS

Home | Current Version | Previous Version | Text Only | Print | Product List | Glossary On
Versions: 1 2 3 4 5 6 7 8 9 10 11 12 13 14 15 16 17 18 19 20 21 22 23 24 25 26 27 28 29 30 31 32 33
000
FTUS43 KDDC 242324
TAFHYS
TAF
KHYS 242324Z 2500/2524 11015KT P6SM VCSH BKN060
     FM250200 11012KT P6SM OVC060
     FM251200 03008KT P6SM VCTS OVC020CB
     FM252100 03008KT P6SM VCTS OVC008CB
     FM252200 01008KT P6SM VCTS OVC015CB=

USA.gov is the U.S. government's official web portal to all federal, state and local government web resources and services.